sensor_id;sensor_type;location;lat;lon;timestamp;P1;durP1;ratioP1;P2;durP2;ratioP2
9506;SDS011;4791;47.528;9.372;2023-03-18T01:48:35;6.65;;;3.75;;
9506;SDS011;4791;47.528;9.372;2023-03-18T02:03:38;5.43;;;3.03;;
9506;SDS011;4791;47.528;9.372;2023-03-18T02:18:42;3.50;;;2.65;;
9506;SDS011;4791;47.528;9.372;2023-03-18T02:33:49;6.47;;;3.00;;
9506;SDS011;4791;47.528;9.372;2023-03-18T02:48:50;5.15;;;3.22;;
9506;SDS011;4791;47.528;9.372;2023-03-18T03:03:51;5.20;;;3.40;;
9506;SDS011;4791;47.528;9.372;2023-03-18T03:18:55;5.10;;;2.90;;
9506;SDS011;4791;47.528;9.372;2023-03-18T03:33:56;4.90;;;2.90;;
9506;SDS011;4791;47.528;9.372;2023-03-18T03:48:58;5.13;;;2.97;;
9506;SDS011;4791;47.528;9.372;2023-03-18T04:03:59;3.88;;;2.83;;
9506;SDS011;4791;47.528;9.372;2023-03-18T04:19:04;5.30;;;2.30;;
9506;SDS011;4791;47.528;9.372;2023-03-18T04:34:08;4.28;;;2.92;;
9506;SDS011;4791;47.528;9.372;2023-03-18T04:49:09;4.88;;;2.50;;
9506;SDS011;4791;47.528;9.372;2023-03-18T05:04:09;4.10;;;2.88;;
9506;SDS011;4791;47.528;9.372;2023-03-18T05:19:10;4.35;;;2.38;;
9506;SDS011;4791;47.528;9.372;2023-03-18T05:34:13;3.40;;;2.20;;
9506;SDS011;4791;47.528;9.372;2023-03-18T05:49:13;3.13;;;2.20;;
9506;SDS011;4791;47.528;9.372;2023-03-18T06:04:16;3.72;;;2.25;;
9506;SDS011;4791;47.528;9.372;2023-03-18T06:19:18;4.63;;;2.40;;
9506;SDS011;4791;47.528;9.372;2023-03-18T06:34:18;3.50;;;2.22;;
9506;SDS011;4791;47.528;9.372;2023-03-18T06:49:21;3.50;;;2.45;;
9506;SDS011;4791;47.528;9.372;2023-03-18T07:04:21;2.90;;;2.08;;
9506;SDS011;4791;47.528;9.372;2023-03-18T07:34:32;3.38;;;2.53;;
9506;SDS011;4791;47.528;9.372;2023-03-18T07:49:35;4.15;;;2.58;;
9506;SDS011;4791;47.528;9.372;2023-03-18T08:04:38;4.50;;;3.22;;
9506;SDS011;4791;47.528;9.372;2023-03-18T08:19:41;3.58;;;2.92;;
9506;SDS011;4791;47.528;9.372;2023-03-18T08:34:42;5.72;;;3.45;;
9506;SDS011;4791;47.528;9.372;2023-03-18T08:49:42;4.25;;;3.08;;
9506;SDS011;4791;47.528;9.372;2023-03-18T09:04:43;6.27;;;3.80;;
9506;SDS011;4791;47.528;9.372;2023-03-18T09:19:44;6.47;;;4.60;;
9506;SDS011;4791;47.528;9.372;2023-03-18T09:34:47;8.30;;;5.40;;
9506;SDS011;4791;47.528;9.372;2023-03-18T10:20:14;10.70;;;5.57;;
9506;SDS011;4791;47.528;9.372;2023-03-18T10:35:36;8.98;;;5.30;;
9506;SDS011;4791;47.528;9.372;2023-03-18T11:21:46;9.88;;;7.07;;
9506;SDS011;4791;47.528;9.372;2023-03-18T11:36:56;7.47;;;5.88;;
9506;SDS011;4791;47.528;9.372;2023-03-18T12:22:43;11.38;;;5.97;;
9506;SDS011;4791;47.528;9.372;2023-03-18T12:53:36;7.73;;;4.77;;
9506;SDS011;4791;47.528;9.372;2023-03-18T13:39:01;16.50;;;6.57;;
9506;SDS011;4791;47.528;9.372;2023-03-18T13:54:10;8.70;;;5.38;;
9506;SDS011;4791;47.528;9.372;2023-03-18T14:25:19;10.17;;;6.73;;
9506;SDS011;4791;47.528;9.372;2023-03-18T14:40:22;11.90;;;6.40;;
9506;SDS011;4791;47.528;9.372;2023-03-18T14:55:29;10.32;;;6.05;;
9506;SDS011;4791;47.528;9.372;2023-03-18T15:10:34;10.73;;;6.53;;
9506;SDS011;4791;47.528;9.372;2023-03-18T15:25:38;15.40;;;7.00;;
9506;SDS011;4791;47.528;9.372;2023-03-18T15:55:47;14.95;;;7.50;;
9506;SDS011;4791;47.528;9.372;2023-03-18T16:10:55;11.80;;;6.20;;
9506;SDS011;4791;47.528;9.372;2023-03-18T16:26:02;11.68;;;6.65;;
9506;SDS011;4791;47.528;9.372;2023-03-18T16:41:02;13.65;;;7.47;;
9506;SDS011;4791;47.528;9.372;2023-03-18T16:56:13;13.73;;;8.57;;
9506;SDS011;4791;47.528;9.372;2023-03-18T17:11:16;17.35;;;9.50;;
9506;SDS011;4791;47.528;9.372;2023-03-18T17:26:20;14.88;;;11.43;;
9506;SDS011;4791;47.528;9.372;2023-03-18T17:41:25;12.95;;;8.15;;
9506;SDS011;4791;47.528;9.372;2023-03-18T17:56:26;11.35;;;7.75;;
9506;SDS011;4791;47.528;9.372;2023-03-18T18:11:32;16.17;;;8.80;;
9506;SDS011;4791;47.528;9.372;2023-03-18T18:26:45;14.32;;;8.85;;
9506;SDS011;4791;47.528;9.372;2023-03-18T18:41:49;15.82;;;10.68;;
